CYKD

Aklavik Airport

Aklavik, , Canada
METAR CYKD 231900Z 34006KT 15SM SCT009 OVC035 00/M02 A2976 RMK SC3SC5 TR LAST STFD OBS/NEXT 241300Z SLP078
Observed Flight Rules
Sep-23 @ 19:00 UTC (17 hours ago) Visual Flight Rules
Wind Visibility Clouds
340° at 6 knots 15 miles
  • Scattered at 900' AGL
  • Overcast at 3,500' AGL
Temperatures Readings
Current 0°C / 32°F
Dewpoint -2°C / 28°F
Humidity 87%
Altimeter 29.76" Hg
Pressure 1007.8 hPa
Elevation 7
METAR CYKD 231900Z 34006KT 15SM SCT009 OVC035 00/M02 A2976 RMK SC3SC5 TR LAST STFD OBS/NEXT 241300Z SLP078
Observed Flight Rules
Sep-23 @ 19:00 UTC
(17 hours ago)
VFR
Wind Visibility
340° at 6 knots 15 miles
Clouds
  • Scattered at 900' AGL
  • Overcast at 3,500' AGL
Temperature Dewpoint
0°C / 32°F -2°C / 28°F
Humidity Altimeter Pressure
87% 29.76" Hg 1007.8 hPa